Time;durP1;ratioP1;P1;durP2;ratioP2;P2;SDS_P1;SDS_P2;PMS_P1;PMS_P2;Temp;Humidity;BMP_temperature;BMP_pressure;BME280_temperature;BME280_humidity;BME280_pressure;Samples;Min_cycle;Max_cycle;Signal;HPM_P1;HPM_P2
2022/06/02 00:01:20;;;;;;;4.80;4.40;;;;;;;8.17;100.00;101092.72;5031078;28;20045;-79
2022/06/02 00:03:57;;;;;;;7.60;5.22;;;;;;;8.15;100.00;101096.19;5022344;28;20108;-79
2022/06/02 00:06:55;;;;;;;5.05;4.63;;;;;;;8.14;100.00;101105.75;5027643;28;20442;-82
2022/06/02 00:10:07;;;;;;;4.75;4.35;;;;;;;8.11;100.00;101098.78;5024141;28;20049;-79
2022/06/02 00:12:54;;;;;;;4.82;4.38;;;;;;;8.10;100.00;101093.56;5041688;28;20049;-79
2022/06/02 00:15:42;;;;;;;5.13;4.63;;;;;;;8.07;100.00;101096.13;5064303;28;20048;-81
2022/06/02 00:18:23;;;;;;;6.90;4.35;;;;;;;8.02;100.00;101108.28;5038134;28;20090;-77
2022/06/02 00:21:10;;;;;;;6.45;4.68;;;;;;;7.98;100.00;101112.56;5043410;28;20059;-78
2022/06/02 00:23:44;;;;;;;5.05;4.53;;;;;;;7.93;100.00;101115.13;5061440;28;20426;-78
2022/06/02 00:26:52;;;;;;;6.35;4.20;;;;;;;7.89;100.00;101113.34;5046407;28;20051;-79
2022/06/02 00:29:36;;;;;;;4.72;4.32;;;;;;;7.86;100.00;101115.94;5075857;28;20032;-80
2022/06/02 00:32:03;;;;;;;;;;;;;;;7.81;100.00;101117.63;5046877;28;20332;-81
2022/06/02 00:34:51;;;;;;;5.50;4.97;;;;;;;7.82;100.00;101128.91;5060174;28;20007;-79
2022/06/02 00:37:27;;;;;;;5.40;4.95;;;;;;;7.79;100.00;101129.75;5041060;28;20132;-77
2022/06/02 00:39:54;;;;;;;7.22;5.72;;;;;;;7.74;100.00;101134.94;5062592;28;20056;-80
2022/06/02 00:42:27;;;;;;;6.22;5.25;;;;;;;7.73;100.00;101134.91;5063019;28;20131;-79
2022/06/02 00:45:04;;;;;;;6.65;6.03;;;;;;;7.73;100.00;101140.09;5074123;28;20405;-80
2022/06/02 00:48:06;;;;;;;6.93;5.97;;;;;;;7.69;100.00;101141.84;5047182;28;20504;-79
2022/06/02 00:51:06;;;;;;;7.85;5.60;;;;;;;7.67;100.00;101140.06;5060478;28;20123;-79
2022/06/02 00:57:35;;;;;;;8.07;7.28;;;;;;;7.67;100.00;101142.66;5050380;28;20089;-79
2022/06/02 01:00:24;;;;;;;8.38;7.38;;;;;;;7.64;100.00;101150.44;5028763;28;20049;-81
2022/06/02 01:03:21;;;;;;;8.90;7.97;;;;;;;7.60;100.00;101152.13;5045772;28;20110;-78
2022/06/02 01:06:38;;;;;;;8.25;7.43;;;;;;;7.54;100.00;101158.16;5062413;28;20041;-79
2022/06/02 01:09:45;;;;;;;11.10;8.48;;;;;;;7.45;100.00;101158.91;5058292;28;20071;-82
2022/06/02 01:12:40;;;;;;;14.48;8.27;;;;;;;7.42;100.00;101163.22;5021717;28;20072;-77
2022/06/02 01:15:36;;;;;;;10.43;7.93;;;;;;;7.38;100.00;101167.53;5028827;28;20156;-80
2022/06/02 01:19:00;;;;;;;7.43;6.72;;;;;;;7.37;100.00;101172.72;5062667;28;20044;-80
2022/06/02 01:22:10;;;;;;;11.45;9.55;;;;;;;7.34;100.00;101170.06;4990604;28;20185;-78
2022/06/02 01:24:58;;;;;;;12.20;9.15;;;;;;;7.32;100.00;101167.44;4987556;28;20435;-79
2022/06/02 01:28:06;;;;;;;10.30;7.97;;;;;;;7.32;100.00;101169.19;5058843;28;20049;-80
2022/06/02 01:31:04;;;;;;;8.82;7.00;;;;;;;7.28;100.00;101163.03;5065284;28;20049;-79
2022/06/02 01:34:00;;;;;;;12.48;11.18;;;;;;;7.26;100.00;101165.63;5058114;28;20058;-78
2022/06/02 01:36:41;;;;;;;12.77;10.25;;;;;;;7.26;100.00;101173.44;5056416;28;20187;-78
2022/06/02 01:39:41;;;;;;;10.98;9.88;;;;;;;7.27;100.00;101182.13;5073133;28;20423;-80
2022/06/02 01:42:43;;;;;;;13.80;10.85;;;;;;;7.26;100.00;101180.38;5038848;28;20575;-79
2022/06/02 01:45:42;;;;;;;16.08;11.57;;;;;;;7.26;100.00;101182.97;5046203;28;20048;-79
2022/06/02 01:48:34;;;;;;;12.88;11.32;;;;;;;7.27;100.00;101176.91;5044511;28;20582;-78
2022/06/02 01:51:10;;;;;;;14.45;11.23;;;;;;;7.26;100.00;101185.56;5059705;28;20125;-79
2022/06/02 01:54:16;;;;;;;13.90;12.35;;;;;;;7.24;100.00;101176.88;5057211;28;20507;-79
2022/06/02 01:57:02;;;;;;;15.07;11.93;;;;;;;7.25;100.00;101186.47;5038604;28;20045;-80
2022/06/02 01:59:54;;;;;;;20.08;13.30;;;;;;;7.21;100.00;101190.75;5043140;28;20494;-80
2022/06/02 02:02:43;;;;;;;16.40;12.68;;;;;;;7.19;100.00;101192.44;5058283;28;20491;-79
2022/06/02 02:06:10;;;;;;;13.40;10.38;;;;;;;7.16;100.00;101188.91;5057507;28;20071;-80
2022/06/02 02:09:10;;;;;;;13.57;11.05;;;;;;;7.10;100.00;101193.22;5017939;28;20500;-79
2022/06/02 02:11:42;;;;;;;14.55;13.02;;;;;;;7.14;100.00;101185.44;5043875;28;20072;-79
2022/06/02 02:14:43;;;;;;;20.70;12.13;;;;;;;7.14;100.00;101188.91;5063697;28;20127;-80
2022/06/02 02:17:43;;;;;;;14.73;12.65;;;;;;;7.13;100.00;101189.75;5062960;28;20135;-79
2022/06/02 02:20:29;;;;;;;15.25;11.70;;;;;;;7.10;100.00;101192.31;5038323;28;20049;-80
2022/06/02 02:23:45;;;;;;;16.85;12.10;;;;;;;7.10;100.00;101189.72;5042170;28;20413;-79
2022/06/02 02:26:26;;;;;;;18.73;13.07;;;;;;;7.10;100.00;101192.31;5026491;28;20410;-78
2022/06/02 02:29:17;;;;;;;17.45;14.25;;;;;;;7.08;100.00;101192.28;5046508;28;20123;-79
2022/06/02 02:32:11;;;;;;;18.02;14.05;;;;;;;7.10;100.00;101201.03;5043591;28;20033;-80
2022/06/02 02:35:10;;;;;;;19.48;13.50;;;;;;;7.08;100.00;101199.25;5052750;28;20490;-80
2022/06/02 02:38:02;;;;;;;18.33;13.13;;;;;;;7.05;100.00;101197.47;5039938;28;20478;-78
2022/06/02 02:40:44;;;;;;;15.52;12.68;;;;;;;7.03;100.00;101204.38;5050554;28;20079;-79
2022/06/02 02:43:34;;;;;;;16.73;12.98;;;;;;;7.00;100.00;101200.84;5060881;28;20410;-79
2022/06/02 02:46:20;;;;;;;18.38;13.43;;;;;;;6.99;100.00;101199.09;5062673;28;20105;-81
2022/06/02 02:49:00;;;;;;;20.45;14.73;;;;;;;6.99;100.00;101206.91;5047919;28;20047;-81
2022/06/02 02:51:52;;;;;;;19.60;14.18;;;;;;;7.00;100.00;101211.25;5066545;28;20064;-79
2022/06/02 02:54:35;;;;;;;17.33;13.55;;;;;;;7.00;100.00;101211.25;5042066;28;20043;-81
2022/06/02 02:57:17;;;;;;;23.65;14.48;;;;;;;6.97;100.00;101211.22;5063336;28;20100;-80
2022/06/02 03:00:19;;;;;;;20.35;14.43;;;;;;;6.97;100.00;101219.91;5049890;28;20102;-81
2022/06/02 03:03:08;;;;;;;17.35;14.13;;;;;;;6.95;100.00;101221.63;5067977;28;20135;-81
2022/06/02 03:06:02;;;;;;;16.42;13.45;;;;;;;6.93;100.00;101224.16;5066720;28;20487;-79
2022/06/02 03:08:33;;;;;;;;;;;;;;;6.90;100.00;101221.53;5082492;28;20055;-79
2022/06/02 03:11:28;;;;;;;19.30;13.40;;;;;;;6.91;100.00;101230.19;5064993;28;19943;-80
2022/06/02 03:14:25;;;;;;;19.85;13.60;;;;;;;6.87;100.00;101236.22;5049914;28;20057;-80
2022/06/02 03:17:26;;;;;;;21.30;14.48;;;;;;;6.88;100.00;101238.88;5063721;28;20049;-82
2022/06/02 03:20:58;;;;;;;27.00;15.90;;;;;;;6.91;100.00;101233.69;5065117;28;20048;-81
2022/06/02 03:24:30;;;;;;;18.80;14.95;;;;;;;6.93;100.00;101231.13;5008570;28;20627;-79
2022/06/02 03:27:13;;;;;;;22.38;16.38;;;;;;;6.95;100.00;101238.09;4993146;28;20719;-79
2022/06/02 03:30:29;;;;;;;20.92;16.15;;;;;;;6.95;100.00;101239.84;5065753;28;20044;-80
2022/06/02 03:33:23;;;;;;;21.92;16.00;;;;;;;6.97;100.00;101247.66;5069226;28;20460;-80
2022/06/02 03:36:51;;;;;;;19.73;14.50;;;;;;;6.96;100.00;101249.38;5047000;28;20083;-79
2022/06/02 03:39:46;;;;;;;20.10;14.73;;;;;;;6.95;100.00;101247.66;5066352;28;20294;-78
2022/06/02 03:42:39;;;;;;;21.35;15.40;;;;;;;6.95;100.00;101251.09;5064559;28;20037;-81
2022/06/02 03:45:23;;;;;;;20.02;15.18;;;;;;;6.98;100.00;101254.63;5066116;28;20044;-80
2022/06/02 03:48:18;;;;;;;21.17;14.75;;;;;;;6.99;100.00;101251.16;5068774;28;20052;-82
2022/06/02 03:51:01;;;;;;;;;;;;;;;7.00;100.00;101258.09;5073926;28;20045;-79
2022/06/02 03:54:09;;;;;;;24.42;15.27;;;;;;;7.02;100.00;101256.41;5065561;28;19924;-77
2022/06/02 03:57:19;;;;;;;21.88;15.63;;;;;;;7.07;100.00;101263.44;5068126;28;20066;-80
2022/06/02 04:00:12;;;;;;;25.58;16.08;;;;;;;7.10;100.00;101266.09;5050790;28;20164;-79
2022/06/02 04:02:51;;;;;;;23.90;16.92;;;;;;;7.18;100.00;101273.13;5054278;28;20049;-80
2022/06/02 04:05:32;;;;;;;23.13;16.35;;;;;;;7.24;100.00;101270.63;5059520;28;20065;-81
2022/06/02 04:09:00;;;;;;;22.73;17.08;;;;;;;7.29;100.00;101275.03;5072863;28;20072;-79
2022/06/02 04:16:03;;;;;;;24.30;16.05;;;;;;;7.41;100.00;101289.09;5072793;28;20116;-80
2022/06/02 04:18:50;;;;;;;22.67;15.93;;;;;;;7.46;100.00;101290.06;4984088;28;20060;-79
2022/06/02 04:21:51;;;;;;;21.98;17.27;;;;;;;7.52;100.00;101300.56;5068704;28;20052;-80
2022/06/02 04:24:32;;;;;;;22.65;16.48;;;;;;;7.60;100.00;101304.16;5051372;28;20136;-79
2022/06/02 04:27:09;;;;;;;23.67;16.45;;;;;;;7.70;100.00;101304.25;5059733;28;20067;-79
2022/06/02 04:30:03;;;;;;;26.33;18.10;;;;;;;7.76;100.00;101304.34;5071083;28;20048;-79
2022/06/02 04:32:40;;;;;;;;;;;;;;;7.82;100.00;101308.75;5061063;28;20032;-79
2022/06/02 04:35:47;;;;;;;22.33;16.23;;;;;;;7.89;100.00;101313.22;5071833;28;19930;-81
2022/06/02 04:38:35;;;;;;;24.02;15.82;;;;;;;7.96;100.00;101315.03;5078746;28;20048;-81
2022/06/02 04:41:42;;;;;;;24.60;17.42;;;;;;;8.05;100.00;101324.69;5043146;28;20049;-81
2022/06/02 04:44:32;;;;;;;22.17;15.63;;;;;;;8.15;100.00;101328.28;5075720;28;20903;-80
2022/06/02 04:47:34;;;;;;;20.92;15.93;;;;;;;8.20;100.00;101327.50;5073918;28;20044;-78
2022/06/02 04:50:23;;;;;;;23.60;16.75;;;;;;;8.25;100.00;101333.63;5062800;28;20045;-78
2022/06/02 04:52:49;;;;;;;21.73;16.90;;;;;;;8.34;100.00;101330.22;5074671;28;20044;-81
2022/06/02 04:55:57;;;;;;;25.17;18.02;;;;;;;8.39;100.00;101335.53;5073038;28;20407;-83
2022/06/02 04:59:23;;;;;;;20.95;16.90;;;;;;;8.41;100.00;101345.13;5057152;28;20051;-81
2022/06/02 05:02:01;;;;;;;22.55;16.58;;;;;;;8.47;100.00;101346.06;5049056;28;20052;-80
2022/06/02 05:05:19;;;;;;;22.25;16.77;;;;;;;8.54;100.00;101337.44;5052468;28;20059;-81
2022/06/02 05:07:57;;;;;;;21.63;16.33;;;;;;;8.61;100.00;101344.47;5040701;28;20044;-80
2022/06/02 05:10:56;;;;;;;23.25;17.95;;;;;;;8.66;100.00;101341.94;5046202;28;20124;-79
2022/06/02 05:13:50;;;;;;;23.75;16.80;;;;;;;8.76;100.00;101347.25;5063321;28;20147;-80
2022/06/02 05:16:56;;;;;;;22.10;16.98;;;;;;;8.85;100.00;101349.09;5042636;28;20045;-81
2022/06/02 05:20:19;;;;;;;20.77;16.13;;;;;;;8.91;100.00;101356.09;5065425;28;20428;-80
2022/06/02 05:23:11;;;;;;;22.02;17.58;;;;;;;8.95;100.00;101355.25;5052225;28;20044;-81
2022/06/02 05:26:29;;;;;;;29.05;19.67;;;;;;;8.98;100.00;101350.03;5071197;28;20375;-79
2022/06/02 05:29:31;;;;;;;26.15;16.75;;;;;;;9.03;100.00;101365.75;5054259;28;20079;-81
2022/06/02 05:32:59;;;;;;;21.98;16.08;;;;;;;9.07;100.00;101368.44;5067168;28;20388;-81
2022/06/02 05:35:53;;;;;;;23.85;16.52;;;;;;;9.18;100.00;101367.66;5080735;28;20440;-81
2022/06/02 05:38:38;;;;;;;20.55;16.13;;;;;;;9.28;100.00;101372.06;5064366;28;20311;-84
2022/06/02 05:41:32;;;;;;;;;;;;;;;9.40;100.00;101377.41;5062992;28;20438;-82
2022/06/02 05:44:43;;;;;;;23.45;15.00;;;;;;;9.51;100.00;101390.53;5071999;28;19928;-82
2022/06/02 05:47:33;;;;;;;21.10;15.27;;;;;;;9.62;100.00;101387.13;5061482;28;20447;-82
2022/06/02 05:50:29;;;;;;;18.15;13.38;;;;;;;9.69;100.00;101395.03;5062192;28;20491;-81
2022/06/02 05:53:18;;;;;;;18.73;14.43;;;;;;;9.77;100.00;101402.91;5069002;28;20123;-78
2022/06/02 05:56:16;;;;;;;24.60;14.77;;;;;;;9.88;100.00;101395.13;5046065;28;20139;-80
2022/06/02 05:59:23;;;;;;;19.30;14.60;;;;;;;9.96;100.00;101401.31;5047520;28;20044;-80
2022/06/02 06:02:11;;;;;;;17.55;13.65;;;;;;;10.11;100.00;101405.72;5067504;28;20078;-81
2022/06/02 06:04:55;;;;;;;18.92;13.57;;;;;;;10.29;100.00;101404.94;5064605;28;20403;-82
2022/06/02 06:07:46;;;;;;;20.58;14.30;;;;;;;10.43;100.00;101403.28;5060909;28;20054;-84
2022/06/02 06:10:20;;;;;;;18.40;13.18;;;;;;;10.53;100.00;101409.44;5063781;28;20049;-83
2022/06/02 06:13:25;;;;;;;18.23;14.65;;;;;;;10.56;100.00;101414.66;5069550;28;20052;-82
2022/06/02 06:16:06;;;;;;;15.27;13.55;;;;;;;10.64;100.00;101414.69;5047696;28;20036;-85
2022/06/02 06:19:09;;;;;;;17.88;12.07;;;;;;;10.71;100.00;101413.81;5042282;28;20051;-85
2022/06/02 06:21:48;;;;;;;15.57;12.38;;;;;;;10.75;100.00;101422.56;5059800;28;20045;-85
2022/06/02 06:24:52;;;;;;;15.55;11.27;;;;;;;10.70;100.00;101425.19;5059257;28;20130;-85
2022/06/02 06:27:26;;;;;;;12.55;10.10;;;;;;;10.70;100.00;101433.06;5051370;28;20049;-83
2022/06/02 06:30:42;;;;;;;15.20;11.43;;;;;;;10.79;100.00;101431.31;5054890;28;20037;-83
2022/06/02 06:33:59;;;;;;;11.80;9.00;;;;;;;10.94;100.00;101420.88;5052157;28;20056;-83
2022/06/02 06:37:20;;;;;;;11.57;8.98;;;;;;;11.09;100.00;101414.78;5055123;28;20123;-84
2022/06/02 06:40:23;;;;;;;13.85;9.18;;;;;;;11.27;99.10;101421.78;5017350;28;20044;-82
2022/06/02 06:43:04;;;;;;;9.10;7.90;;;;;;;11.46;98.30;101427.91;5039760;28;20056;-83
2022/06/02 06:45:42;;;;;;;7.40;6.00;;;;;;;11.54;95.55;101420.06;5053155;28;20048;-82
2022/06/02 06:48:24;;;;;;;9.73;7.68;;;;;;;11.64;95.50;101421.78;5056499;28;20049;-83
2022/06/02 06:51:14;;;;;;;11.65;7.78;;;;;;;11.86;95.10;101421.75;5038739;28;20048;-84
2022/06/02 06:54:21;;;;;;;8.63;7.28;;;;;;;12.18;92.47;101426.09;5052964;28;20064;-82
2022/06/02 06:57:10;;;;;;;7.25;6.55;;;;;;;12.34;87.26;101427.75;5051828;28;20044;-79
2022/06/02 07:00:02;;;;;;;6.43;5.72;;;;;;;12.47;84.78;101425.09;5041185;28;20567;-83
2022/06/02 07:02:43;;;;;;;6.82;4.65;;;;;;;12.59;84.01;101427.66;5038350;28;20128;-83
2022/06/02 07:05:39;;;;;;;7.50;5.68;;;;;;;12.66;82.57;101431.13;5054446;28;20048;-85
2022/06/02 07:08:36;;;;;;;5.75;5.25;;;;;;;12.69;80.46;101439.84;5055686;28;20418;-84
2022/06/02 07:14:45;;;;;;;8.52;6.82;;;;;;;12.74;80.11;101432.81;4983075;28;20073;-84
2022/06/02 07:17:38;;;;;;;6.22;5.63;;;;;;;13.01;80.00;101435.28;4995641;28;20077;-84
2022/06/02 07:20:22;;;;;;;7.20;4.70;;;;;;;13.35;78.79;101441.19;5022286;28;20047;-83
2022/06/02 07:23:12;;;;;;;6.13;5.13;;;;;;;13.68;76.29;101446.22;5041022;28;20152;-83
2022/06/02 07:26:13;;;;;;;4.82;4.43;;;;;;;13.87;75.10;101447.78;5039830;28;20051;-84
2022/06/02 07:29:04;;;;;;;5.60;4.88;;;;;;;13.80;72.63;101438.19;5070415;28;20053;-83
2022/06/02 07:32:07;;;;;;;5.40;4.88;;;;;;;14.11;72.45;101443.16;5044858;28;20045;-83
2022/06/02 07:34:49;;;;;;;8.90;5.90;;;;;;;14.60;69.83;101438.19;5058108;28;20055;-83
2022/06/02 07:37:40;;;;;;;5.35;4.85;;;;;;;14.80;67.98;101438.81;5072030;28;20041;-82
2022/06/02 07:40:40;;;;;;;4.32;3.90;;;;;;;14.62;66.97;101437.25;5042583;28;20140;-82
2022/06/02 07:43:51;;;;;;;4.57;3.50;;;;;;;14.80;68.52;101440.59;5057234;28;20052;-83
2022/06/02 07:46:40;;;;;;;4.15;3.78;;;;;;;15.67;62.04;101434.81;5045813;28;20045;-83
2022/06/02 07:49:45;;;;;;;4.60;3.33;;;;;;;16.61;59.09;101432.13;5063895;28;20116;-83
2022/06/02 07:52:31;;;;;;;4.53;3.53;;;;;;;16.89;56.76;101432.41;5056123;28;20499;-85
2022/06/02 07:58:30;;;;;;;3.55;2.83;;;;;;;17.30;55.84;101435.88;5065348;28;20056;-86
2022/06/02 08:01:21;;;;;;;3.42;3.13;;;;;;;17.88;51.62;101440.56;5049316;28;20049;-81
2022/06/02 08:04:22;;;;;;;4.72;3.08;;;;;;;18.72;50.12;101432.91;5062679;28;20052;-83
2022/06/02 08:07:11;;;;;;;5.47;3.60;;;;;;;19.25;48.28;101432.19;5064316;28;20037;-85
2022/06/02 08:10:15;;;;;;;3.28;3.08;;;;;;;18.47;49.51;101438.97;5041585;28;20044;-83
2022/06/02 08:12:56;;;;;;;3.15;2.90;;;;;;;18.01;51.86;101451.75;5054979;28;20309;-83
2022/06/02 08:15:57;;;;;;;3.63;2.80;;;;;;;18.70;49.15;101454.19;5042483;28;20068;-83
2022/06/02 08:18:39;;;;;;;3.20;2.92;;;;;;;19.07;46.71;101446.91;5041263;28;20804;-85
2022/06/02 08:21:27;;;;;;;5.88;2.90;;;;;;;18.82;45.62;101448.50;5059100;28;20202;-84
2022/06/02 08:24:32;;;;;;;3.03;2.70;;;;;;;18.43;46.69;101450.56;5053255;28;20044;-85
2022/06/02 08:27:38;;;;;;;3.10;2.70;;;;;;;18.09;47.68;101457.69;5058406;28;20048;-84
2022/06/02 08:30:29;;;;;;;2.83;2.45;;;;;;;17.68;47.93;101451.72;5056697;28;20064;-85
2022/06/02 08:33:30;;;;;;;4.00;2.53;;;;;;;18.09;46.29;101465.63;5056384;28;20045;-85
2022/06/02 08:36:08;;;;;;;3.30;2.47;;;;;;;19.30;44.77;101459.44;5054265;28;20073;-83
2022/06/02 08:39:24;;;;;;;2.30;2.10;;;;;;;20.90;40.33;101460.88;5058392;28;20044;-83
2022/06/02 08:42:21;;;;;;;2.25;1.60;;;;;;;19.72;41.77;101468.69;5055385;28;20586;-83
2022/06/02 08:45:11;;;;;;;4.45;2.58;;;;;;;18.65;45.17;101474.69;5059329;28;20044;-83
2022/06/02 08:48:28;;;;;;;2.58;2.47;;;;;;;18.44;44.92;101476.19;5062242;28;20045;-83
2022/06/02 08:51:29;;;;;;;3.13;2.22;;;;;;;19.58;42.91;101462.06;5074835;28;20086;-83
2022/06/02 08:54:41;;;;;;;2.25;2.15;;;;;;;21.17;38.07;101468.66;5053612;28;20055;-84
2022/06/02 08:57:28;;;;;;;2.10;1.90;;;;;;;20.28;39.67;101471.13;5071235;28;20056;-83
2022/06/02 09:00:25;;;;;;;4.10;2.20;;;;;;;19.23;41.83;101474.69;5073682;28;20106;-85
2022/06/02 09:03:49;;;;;;;1.92;1.42;;;;;;;20.12;41.66;101483.25;5060485;28;20382;-84
2022/06/02 09:07:02;;;;;;;3.90;2.70;;;;;;;21.74;38.48;101477.00;5054941;28;20395;-85
2022/06/02 09:09:59;;;;;;;2.13;1.52;;;;;;;21.94;38.84;101475.25;5034084;28;20045;-84
2022/06/02 09:13:02;;;;;;;1.85;1.75;;;;;;;23.03;35.21;101481.91;5043487;28;20037;-82
2022/06/02 09:15:41;;;;;;;2.45;2.30;;;;;;;22.95;34.79;101482.28;5056515;28;20055;-84
2022/06/02 09:18:14;;;;;;;1.63;1.52;;;;;;;23.13;35.63;101489.41;5050439;28;20049;-84
2022/06/02 09:20:56;;;;;;;1.98;1.88;;;;;;;23.53;34.37;101477.69;5061229;28;20043;-85
2022/06/02 09:23:46;;;;;;;2.70;1.95;;;;;;;22.47;35.35;101492.50;5041813;28;20450;-84
2022/06/02 09:26:59;;;;;;;3.20;2.15;;;;;;;22.74;35.86;101494.84;5039454;28;20066;-84
2022/06/02 09:29:50;;;;;;;1.55;1.45;;;;;;;22.76;36.02;101506.28;5044457;28;20040;-86
2022/06/02 09:33:33;;;;;;;3.50;2.10;;;;;;;23.52;33.77;101500.03;5047615;28;20075;-85
2022/06/02 09:36:01;;;;;;;1.50;1.40;;;;;;;23.49;33.74;101502.84;5038298;28;20265;-84
2022/06/02 09:38:58;;;;;;;2.08;1.98;;;;;;;24.15;33.06;101501.31;5059439;28;20048;-85
2022/06/02 09:41:34;;;;;;;1.80;1.70;;;;;;;24.88;32.17;101500.97;5051791;28;20049;-82
2022/06/02 09:44:17;;;;;;;2.90;1.88;;;;;;;23.90;33.39;101510.63;5074662;28;20072;-82
2022/06/02 09:47:09;;;;;;;1.73;1.63;;;;;;;23.28;33.66;101524.34;5048151;28;21012;-85
2022/06/02 09:50:03;;;;;;;1.48;1.48;;;;;;;24.34;32.84;101514.56;5062433;28;20041;-83
2022/06/02 09:53:32;;;;;;;1.95;1.50;;;;;;;25.49;30.11;101507.34;5042629;28;20045;-85
2022/06/02 09:56:21;;;;;;;1.25;1.00;;;;;;;26.18;29.58;101507.75;4996500;28;20148;-85
2022/06/02 09:58:57;;;;;;;0.93;0.93;;;;;;;26.12;29.36;101520.69;5061826;28;20092;-85
2022/06/02 10:01:38;;;;;;;1.70;1.60;;;;;;;24.94;30.11;101509.53;5045428;28;20045;-84
2022/06/02 10:04:24;;;;;;;3.53;1.73;;;;;;;23.97;31.82;101521.88;5060149;28;20052;-85
2022/06/02 10:07:32;;;;;;;1.70;1.60;;;;;;;23.24;33.29;101533.44;5058635;28;20060;-85
2022/06/02 10:10:05;;;;;;;1.52;1.40;;;;;;;22.73;34.49;101527.81;5060033;28;20045;-83
2022/06/02 10:16:03;;;;;;;1.50;1.40;;;;;;;23.23;33.48;101526.38;5063983;28;20076;-85
2022/06/02 10:18:36;;;;;;;1.33;1.23;;;;;;;23.71;33.38;101516.00;5044563;28;20048;-85
2022/06/02 10:21:24;;;;;;;0.70;0.70;;;;;;;23.68;33.19;101527.72;5058966;28;20146;-84
2022/06/02 10:24:10;;;;;;;1.27;1.10;;;;;;;24.03;31.92;101525.09;5043146;28;20040;-86
2022/06/02 10:27:04;;;;;;;2.05;1.67;;;;;;;24.78;30.76;101516.69;5055898;28;20092;-82
2022/06/02 10:29:43;;;;;;;1.10;0.95;;;;;;;24.00;31.72;101519.91;5041679;28;20052;-83
2022/06/02 10:32:39;;;;;;;1.50;1.40;;;;;;;24.02;32.41;101520.69;5064708;28;20040;-84
2022/06/02 10:35:46;;;;;;;2.13;0.95;;;;;;;25.83;29.93;101509.88;5053914;28;20136;-85
2022/06/02 10:38:59;;;;;;;2.25;1.00;;;;;;;27.96;26.48;101507.00;5055801;28;20051;-84
2022/06/02 10:41:58;;;;;;;1.33;0.88;;;;;;;28.85;25.12;101502.59;5045009;28;20188;-83
2022/06/02 10:45:12;;;;;;;1.83;1.00;;;;;;;28.13;25.05;101513.94;5061319;28;20044;-84
2022/06/02 10:48:09;;;;;;;1.02;1.02;;;;;;;26.45;27.72;101522.22;5062289;28;20049;-84
2022/06/02 10:51:05;;;;;;;2.28;1.15;;;;;;;27.52;26.99;101524.34;5060541;28;20155;-84
2022/06/02 10:53:51;;;;;;;1.30;1.30;;;;;;;29.01;25.54;101517.63;5036449;28;20048;-85
2022/06/02 10:56:44;;;;;;;1.13;1.02;;;;;;;30.07;24.24;101511.47;5057771;28;20389;-83
2022/06/02 11:00:05;;;;;;;1.63;1.10;;;;;;;29.28;24.42;101514.75;5039878;28;20052;-83
2022/06/02 11:02:55;;;;;;;1.70;1.25;;;;;;;27.50;26.74;101512.84;5058901;28;20442;-84
2022/06/02 11:06:24;;;;;;;2.53;1.30;;;;;;;25.09;29.37;101517.66;5038822;28;20129;-85
2022/06/02 11:09:31;;;;;;;1.73;1.50;;;;;;;22.70;33.46;101527.97;5045588;28;20532;-83
2022/06/02 11:13:03;;;;;;;2.25;1.05;;;;;;;23.33;33.27;101524.97;5073179;28;20057;-83
2022/06/02 11:16:19;;;;;;;1.67;1.33;;;;;;;26.38;28.87;101522.59;5044489;28;20057;-83
2022/06/02 11:19:31;;;;;;;1.70;1.60;;;;;;;24.75;30.74;101517.72;5058715;28;20051;-84
2022/06/02 11:22:38;;;;;;;3.13;1.63;;;;;;;23.23;32.65;101521.03;5041826;28;20364;-84
2022/06/02 11:25:26;;;;;;;1.73;1.60;;;;;;;22.17;34.61;101514.25;5043169;28;20049;-84
2022/06/02 11:28:20;;;;;;;1.48;1.38;;;;;;;23.17;32.29;101524.03;5074074;28;20044;-84
2022/06/02 11:31:16;;;;;;;1.40;1.30;;;;;;;24.14;31.42;101511.13;5040475;28;20164;-83
2022/06/02 11:34:31;;;;;;;3.60;2.08;;;;;;;24.02;32.04;101518.00;5054868;28;20060;-83
2022/06/02 11:37:59;;;;;;;2.20;2.00;;;;;;;22.53;34.61;101518.91;5058116;28;20129;-84
2022/06/02 11:40:39;;;;;;;2.45;1.88;;;;;;;21.85;35.83;101515.63;5015307;28;20526;-83
2022/06/02 11:43:24;;;;;;;1.58;1.45;;;;;;;21.66;36.18;101519.09;4999904;28;20050;-85
2022/06/02 11:46:52;;;;;;;2.38;1.40;;;;;;;22.16;35.54;101515.16;5031267;28;20112;-83
2022/06/02 11:49:37;;;;;;;1.52;1.42;;;;;;;23.21;34.25;101504.22;5057471;28;20473;-82
2022/06/02 11:52:22;;;;;;;2.00;1.25;;;;;;;25.36;31.27;101506.34;5056449;28;20052;-83
2022/06/02 11:55:10;;;;;;;3.13;1.42;;;;;;;24.90;31.39;101494.59;5071616;28;20139;-84
2022/06/02 11:57:43;;;;;;;2.08;1.42;;;;;;;23.45;32.79;101507.47;5052638;28;20044;-82
2022/06/02 12:00:46;;;;;;;3.45;1.83;;;;;;;22.71;34.50;101510.97;5074817;28;20086;-85
2022/06/02 12:04:00;;;;;;;1.38;1.20;;;;;;;24.88;31.88;101495.63;5040425;28;20056;-84
2022/06/02 12:07:05;;;;;;;;;;;;;;;25.73;29.75;101502.34;5062215;28;20056;-84
2022/06/02 12:10:02;;;;;;;1.05;1.02;;;;;;;24.58;31.94;101499.88;5054295;28;19924;-81
2022/06/02 12:12:47;;;;;;;1.63;1.60;;;;;;;23.55;33.01;101507.91;5049729;28;20053;-83
2022/06/02 12:16:02;;;;;;;3.58;1.75;;;;;;;24.55;31.85;101504.53;5056022;28;20139;-85
2022/06/02 12:19:04;;;;;;;3.25;1.65;;;;;;;26.66;29.42;101499.41;5053768;28;20049;-84
2022/06/02 12:21:52;;;;;;;2.15;1.55;;;;;;;26.83;28.94;101505.53;5056308;28;20045;-83
2022/06/02 12:24:40;;;;;;;1.48;1.38;;;;;;;26.88;28.49;101504.28;5056257;28;20048;-83
2022/06/02 12:27:37;;;;;;;2.42;1.05;;;;;;;27.85;27.49;101491.63;5036765;28;20546;-84
2022/06/02 12:30:20;;;;;;;1.75;1.35;;;;;;;27.19;28.04;101494.22;5042957;28;20049;-84
2022/06/02 12:33:12;;;;;;;1.98;1.35;;;;;;;25.58;30.13;101496.09;5040575;28;20099;-83
2022/06/02 12:36:18;;;;;;;1.48;1.48;;;;;;;24.00;32.57;101500.31;5039573;28;20040;-82
2022/06/02 12:39:06;;;;;;;1.48;1.38;;;;;;;22.75;34.83;101508.13;5041725;28;20045;-82
2022/06/02 12:41:56;;;;;;;1.27;1.27;;;;;;;22.00;35.71;101509.66;5059371;28;20044;-83
2022/06/02 12:45:15;;;;;;;1.52;1.20;;;;;;;23.00;34.36;101500.72;5051738;28;20040;-85
2022/06/02 12:48:21;;;;;;;1.63;1.30;;;;;;;25.03;31.10;101493.88;5057220;28;20048;-85
2022/06/02 12:51:27;;;;;;;0.85;0.85;;;;;;;25.57;30.28;101498.88;5052531;28;20040;-83
2022/06/02 12:54:31;;;;;;;1.08;1.02;;;;;;;27.45;27.69;101491.66;5061704;28;20097;-80
2022/06/02 12:57:20;;;;;;;2.67;1.33;;;;;;;26.76;28.65;101497.00;5051802;28;20503;-83
2022/06/02 13:00:04;;;;;;;3.03;1.30;;;;;;;27.12;28.59;101492.03;5078054;28;20072;-84
2022/06/02 13:03:17;;;;;;;0.95;0.95;;;;;;;29.79;25.88;101497.41;5043753;28;20343;-85
2022/06/02 13:06:36;;;;;;;2.00;0.90;;;;;;;32.15;22.80;101500.75;5041586;28;20185;-83
2022/06/02 13:09:28;;;;;;;1.10;1.10;;;;;;;31.62;22.92;101497.16;5051570;28;20315;-85
2022/06/02 13:12:40;;;;;;;1.15;0.82;;;;;;;31.81;22.39;101487.44;5055202;28;20843;-85
2022/06/02 13:15:40;;;;;;;1.42;0.82;;;;;;;32.36;21.77;101489.03;5053367;28;20115;-85
2022/06/02 13:18:38;;;;;;;1.63;0.70;;;;;;;32.92;20.71;101484.97;5071919;28;20369;-86
2022/06/02 13:21:49;;;;;;;1.67;0.88;;;;;;;33.18;20.57;101484.41;5035694;28;20067;-86
2022/06/02 13:24:49;;;;;;;2.00;1.02;;;;;;;33.37;20.94;101494.47;5055691;28;20048;-86
2022/06/02 13:27:50;;;;;;;2.22;1.00;;;;;;;31.58;22.13;101486.72;5041285;28;20057;-83
2022/06/02 13:30:30;;;;;;;0.90;0.90;;;;;;;30.55;23.81;101487.94;5056267;28;20056;-84
2022/06/02 13:33:33;;;;;;;2.42;0.65;;;;;;;31.09;23.24;101489.00;5056981;28;20051;-84
2022/06/02 13:36:29;;;;;;;0.77;0.75;;;;;;;32.71;20.77;101476.91;5058769;28;20143;-85
2022/06/02 13:39:49;;;;;;;2.17;0.57;;;;;;;34.45;19.59;101485.09;5042939;28;20044;-84
2022/06/02 13:43:01;;;;;;;0.60;0.60;;;;;;;36.28;17.98;101480.25;5074571;28;20048;-84
2022/06/02 13:46:20;;;;;;;0.93;0.93;;;;;;;36.13;17.69;101481.88;5058584;28;20044;-86
2022/06/02 13:49:30;;;;;;;1.42;0.95;;;;;;;35.77;18.16;101481.00;5058133;28;20074;-85